Fredericksville, Pennsylvania
Current Conditions -  °F | °C
As of 1:35 PM on Thursday 30 Oct 2014 (Local Time) from KXLL Reporting Station
Scattered Clouds Scattered Clouds  
Wind Chill: 55°   Ceiling: Unl
Heat Index: 55°   Visibility: 10mi
Dew Point: 34°   Wind: 12mph
Humidity: 44%   Direction: 310°NW
Pressure: 30.02"   Gusts: NA
Location:  40.4939°N, 75.6842°W
Report Text: KXLL 301735Z AUTO 31010KT 10SM SCT050 13/01 A3002 RMK AO2
Loading
Personal Weather Stations






























Interactive Weather Map
Tropical Storm Tracking
New forecast layout! Learn more

10-Day Weather Forecast

Advertisements
Track Severe Weather on mobile